Time;durP1;ratioP1;P1;durP2;ratioP2;P2;SDS_P1;SDS_P2;PMS_P1;PMS_P2;Temp;Humidity;BMP_temperature;BMP_pressure;BME280_temperature;BME280_humidity;BME280_pressure;Samples;Min_cycle;Max_cycle;Signal;HPM_P1;HPM_P2
2023/07/24 00:00:35;;;;;;;;;;;12.50;99.90;;;;;;5106113;28;19915;-64
2023/07/24 00:03:02;;;;;;;;;;;12.60;99.90;;;;;;5108459;28;19918;-63
2023/07/24 00:05:29;;;;;;;;;;;12.70;99.90;;;;;;5115210;28;20359;-66
2023/07/24 00:07:56;;;;;;;;;;;12.70;99.90;;;;;;5114516;28;20326;-63
2023/07/24 00:10:22;;;;;;;;;;;12.90;99.90;;;;;;5113015;28;19911;-66
2023/07/24 00:12:49;;;;;;;;;;;13.00;99.90;;;;;;5114403;28;19916;-64
2023/07/24 00:15:16;;;;;;;;;;;13.00;99.90;;;;;;5104757;28;19912;-63
2023/07/24 00:17:42;;;;;;;;;;;13.20;99.90;;;;;;5093539;28;19934;-65
2023/07/24 00:20:09;;;;;;;;;;;13.30;99.90;;;;;;5109867;28;19976;-64
2023/07/24 00:22:36;;;;;;;;;;;13.50;99.90;;;;;;5113254;28;19934;-65
2023/07/24 00:25:02;;;;;;;;;;;13.60;99.90;;;;;;5113580;28;20353;-64
2023/07/24 00:27:29;;;;;;;;;;;13.90;99.90;;;;;;5093100;28;20372;-65
2023/07/24 00:29:55;;;;;;;;;;;14.10;99.90;;;;;;5102919;28;19919;-64
2023/07/24 00:32:22;;;;;;;;;;;14.30;99.90;;;;;;5114990;28;20284;-62
2023/07/24 00:34:49;;;;;;;;;;;14.40;99.90;;;;;;5114952;28;19922;-63
2023/07/24 00:37:15;;;;;;;;;;;14.50;99.90;;;;;;5106675;28;19915;-63
2023/07/24 00:39:42;;;;;;;;;;;14.70;99.90;;;;;;5112479;28;19945;-67
2023/07/24 00:42:09;;;;;;;;;;;15.00;99.90;;;;;;5107762;28;20373;-63
2023/07/24 00:44:36;;;;;;;;;;;15.20;99.90;;;;;;5094254;28;19966;-65
2023/07/24 00:47:03;;;;;;;;;;;15.50;99.90;;;;;;5100263;28;19908;-63
2023/07/24 00:49:29;;;;;;;;;;;15.70;99.90;;;;;;5108326;28;19931;-62
2023/07/24 00:51:56;;;;;;;;;;;15.70;99.90;;;;;;5113972;28;19955;-63
2023/07/24 00:54:23;;;;;;;;;;;15.70;99.90;;;;;;5114364;28;19907;-63
2023/07/24 00:56:50;;;;;;;;;;;15.60;99.90;;;;;;5099639;28;20291;-64
2023/07/24 00:59:17;;;;;;;;;;;15.50;99.90;;;;;;5093721;28;20011;-65
2023/07/24 01:01:44;;;;;;;;;;;15.40;99.90;;;;;;5112949;28;20288;-64
2023/07/24 01:04:11;;;;;;;;;;;15.30;99.90;;;;;;5111487;28;19995;-63
2023/07/24 01:06:38;;;;;;;;;;;15.30;99.90;;;;;;5103159;28;19948;-63
2023/07/24 01:09:04;;;;;;;;;;;15.20;99.90;;;;;;5099801;28;19907;-65
2023/07/24 01:11:37;;;;;;;;;;;15.20;99.90;;;;;;5113356;28;20318;-63
2023/07/24 01:14:22;;;;;;;;;;;15.10;99.90;;;;;;5112900;28;19951;-64
2023/07/24 01:16:49;;;;;;;;;;;15.10;99.90;;;;;;5113175;28;19915;-65
2023/07/24 01:19:36;;;;;;;;;;;15.30;99.90;;;;;;5109791;28;19912;-65
2023/07/24 01:22:18;;;;;;;;;;;15.40;99.90;;;;;;5095279;28;19915;-64
2023/07/24 01:25:03;;;;;;;;;;;15.50;99.90;;;;;;5114127;28;20352;-66
2023/07/24 01:27:29;;;;;;;;;;;15.50;99.90;;;;;;5112692;28;19965;-64
2023/07/24 01:29:56;;;;;;;;;;;15.40;99.90;;;;;;5112548;28;19916;-62
2023/07/24 01:32:23;;;;;;;;;;;15.50;99.90;;;;;;5113246;28;20252;-66
2023/07/24 01:34:49;;;;;;;;;;;15.30;99.90;;;;;;5111846;28;19915;-66
2023/07/24 01:37:16;;;;;;;;;;;15.30;99.90;;;;;;5112846;28;20069;-65
2023/07/24 01:39:44;;;;;;;;;;;15.40;99.90;;;;;;5099052;28;19916;-65
2023/07/24 01:42:11;;;;;;;;;;;15.40;99.90;;;;;;5108201;28;19908;-64
2023/07/24 01:44:37;;;;;;;;;;;15.40;99.90;;;;;;5102740;28;19912;-65
2023/07/24 01:47:04;;;;;;;;;;;15.50;99.90;;;;;;5112680;28;19907;-63
2023/07/24 01:49:31;;;;;;;;;;;15.50;99.90;;;;;;5095260;28;19915;-64
2023/07/24 01:51:57;;;;;;;;;;;15.70;99.90;;;;;;5091974;28;20004;-65
2023/07/24 01:54:24;;;;;;;;;;;15.90;99.90;;;;;;5094280;28;19915;-65
2023/07/24 01:56:51;;;;;;;;;;;16.10;99.90;;;;;;5112891;28;19995;-64
2023/07/24 01:59:17;;;;;;;;;;;16.20;99.90;;;;;;5111901;28;19908;-64
2023/07/24 02:01:44;;;;;;;;;;;16.40;99.90;;;;;;5112047;28;19908;-62
2023/07/24 02:04:11;;;;;;;;;;;16.50;99.90;;;;;;5112330;28;19922;-66
2023/07/24 02:06:37;;;;;;;;;;;16.80;99.90;;;;;;5098258;28;19919;-64
2023/07/24 02:09:04;;;;;;;;;;;16.90;99.90;;;;;;5104762;28;19957;-64
2023/07/24 02:11:30;;;;;;;;;;;17.00;99.90;;;;;;5111530;28;19908;-65
2023/07/24 02:13:57;;;;;;;;;;;17.00;99.90;;;;;;5112488;28;19915;-64
2023/07/24 02:16:24;;;;;;;;;;;17.10;99.90;;;;;;5112166;28;19912;-62
2023/07/24 02:18:50;;;;;;;;;;;17.20;99.90;;;;;;5112348;28;19931;-64
2023/07/24 02:21:17;;;;;;;;;;;17.20;99.90;;;;;;5112805;28;20275;-64
2023/07/24 02:23:43;;;;;;;;;;;17.30;99.90;;;;;;5112280;28;19911;-64
2023/07/24 02:26:10;;;;;;;;;;;17.20;99.90;;;;;;5111676;28;19907;-64
2023/07/24 02:28:37;;;;;;;;;;;17.20;99.90;;;;;;5101911;28;19916;-63
2023/07/24 02:31:03;;;;;;;;;;;17.30;99.90;;;;;;5092072;28;20439;-66
2023/07/24 02:33:30;;;;;;;;;;;17.40;99.90;;;;;;5107523;28;19919;-62
2023/07/24 02:35:56;;;;;;;;;;;17.50;99.90;;;;;;5112249;28;19996;-65
2023/07/24 02:38:23;;;;;;;;;;;17.40;99.90;;;;;;5103724;28;20319;-64
2023/07/24 02:40:50;;;;;;;;;;;17.60;99.90;;;;;;5097646;28;19915;-66
2023/07/24 02:43:16;;;;;;;;;;;17.50;99.90;;;;;;5092176;28;19920;-64
2023/07/24 02:45:43;;;;;;;;;;;17.40;99.90;;;;;;5113603;28;19916;-64
2023/07/24 02:48:09;;;;;;;;;;;17.50;99.90;;;;;;5115970;28;19918;-65
2023/07/24 02:50:36;;;;;;;;;;;17.60;99.90;;;;;;5116771;28;19927;-63
2023/07/24 02:53:04;;;;;;;;;;;17.80;99.90;;;;;;5116038;28;19916;-62
2023/07/24 02:55:31;;;;;;;;;;;17.80;99.90;;;;;;5116677;28;19932;-65
2023/07/24 02:57:57;;;;;;;;;;;17.80;99.90;;;;;;5111781;28;19920;-64
2023/07/24 03:00:24;;;;;;;;;;;17.80;99.90;;;;;;5095613;28;19954;-64
2023/07/24 03:02:51;;;;;;;;;;;17.90;99.90;;;;;;5093924;28;19914;-63
2023/07/24 03:05:17;;;;;;;;;;;17.90;99.90;;;;;;5098672;28;19907;-65
2023/07/24 03:07:44;;;;;;;;;;;17.90;99.90;;;;;;5112235;28;20368;-65
2023/07/24 03:10:11;;;;;;;;;;;18.20;99.90;;;;;;5094172;28;19946;-67
2023/07/24 03:12:37;;;;;;;;;;;18.60;99.90;;;;;;5095519;28;20286;-67
2023/07/24 03:15:04;;;;;;;;;;;18.80;99.90;;;;;;5100104;28;19943;-64
2023/07/24 03:17:31;;;;;;;;;;;19.00;99.90;;;;;;5110820;28;20324;-64
2023/07/24 03:19:57;;;;;;;;;;;19.10;99.90;;;;;;5115645;28;19915;-64
2023/07/24 03:22:24;;;;;;;;;;;19.10;99.90;;;;;;5116187;28;19908;-63
2023/07/24 03:24:50;;;;;;;;;;;19.10;99.90;;;;;;5115685;28;19908;-64
2023/07/24 03:27:17;;;;;;;;;;;19.00;99.90;;;;;;5099638;28;19999;-63
2023/07/24 03:29:44;;;;;;;;;;;18.90;99.90;;;;;;5095358;28;19919;-64
2023/07/24 03:32:10;;;;;;;;;;;18.80;99.90;;;;;;5106625;28;19907;-66
2023/07/24 03:34:37;;;;;;;;;;;18.70;99.90;;;;;;5115584;28;19919;-64
2023/07/24 03:37:04;;;;;;;;;;;18.70;99.90;;;;;;5115842;28;19908;-65
2023/07/24 03:39:30;;;;;;;;;;;18.50;99.90;;;;;;5115450;28;19908;-65
2023/07/24 03:41:57;;;;;;;;;;;18.60;99.90;;;;;;5115845;28;19912;-65
2023/07/24 03:44:24;;;;;;;;;;;18.70;99.90;;;;;;5115183;28;19923;-65
2023/07/24 03:46:50;;;;;;;;;;;18.90;99.90;;;;;;5115076;28;19922;-68
2023/07/24 03:49:17;;;;;;;;;;;19.60;99.90;;;;;;5115247;28;19930;-65
2023/07/24 03:51:43;;;;;;;;;;;19.60;99.90;;;;;;5107321;28;20345;-66
2023/07/24 03:54:10;;;;;;;;;;;19.50;99.90;;;;;;5104356;28;19923;-65
2023/07/24 03:56:37;;;;;;;;;;;19.90;99.90;;;;;;5112714;28;19911;-64
2023/07/24 03:59:03;;;;;;;;;;;21.10;99.90;;;;;;5111134;28;19907;-64
2023/07/24 04:01:30;;;;;;;;;;;21.90;97.10;;;;;;5114565;28;19912;-65
2023/07/24 04:03:57;;;;;;;;;;;21.80;96.90;;;;;;5114280;28;19918;-65
2023/07/24 04:06:24;;;;;;;;;;;21.50;96.70;;;;;;5114939;28;19931;-64
2023/07/24 04:08:51;;;;;;;;;;;21.80;96.90;;;;;;5114288;28;19915;-64
2023/07/24 04:11:17;;;;;;;;;;;22.00;96.30;;;;;;5113181;28;20019;-65
2023/07/24 04:13:44;;;;;;;;;;;22.20;96.20;;;;;;5114137;28;19923;-64
2023/07/24 04:16:10;;;;;;;;;;;23.30;95.00;;;;;;5114690;28;20320;-65
2023/07/24 04:18:37;;;;;;;;;;;24.50;93.60;;;;;;5114573;28;19908;-65
2023/07/24 04:21:04;;;;;;;;;;;25.60;91.50;;;;;;5112626;28;19918;-67
2023/07/24 04:23:30;;;;;;;;;;;26.00;90.60;;;;;;5110379;28;19911;-64
2023/07/24 04:25:57;;;;;;;;;;;25.40;90.10;;;;;;5111321;28;19923;-65
2023/07/24 04:28:23;;;;;;;;;;;24.50;91.00;;;;;;5112987;28;19908;-65
2023/07/24 04:30:50;;;;;;;;;;;23.20;92.50;;;;;;5097673;28;19916;-66
2023/07/24 04:33:17;;;;;;;;;;;22.60;93.20;;;;;;5112842;28;20633;-64
2023/07/24 04:35:43;;;;;;;;;;;21.90;94.30;;;;;;5112011;28;20403;-64
2023/07/24 04:38:10;;;;;;;;;;;21.20;94.90;;;;;;5107508;28;19908;-64
2023/07/24 04:40:36;;;;;;;;;;;20.70;95.70;;;;;;5113643;28;19919;-65
2023/07/24 04:43:04;;;;;;;;;;;20.40;96.30;;;;;;5112800;28;19920;-64
2023/07/24 04:45:30;;;;;;;;;;;20.20;96.80;;;;;;5113564;28;19912;-65
2023/07/24 04:47:57;;;;;;;;;;;19.90;96.50;;;;;;5113074;28;19911;-65
2023/07/24 04:50:23;;;;;;;;;;;19.50;97.10;;;;;;5108207;28;19912;-65
2023/07/24 04:52:50;;;;;;;;;;;19.30;97.30;;;;;;5113003;28;20360;-64
2023/07/24 04:55:16;;;;;;;;;;;19.10;97.50;;;;;;5112285;28;19916;-64
2023/07/24 04:57:43;;;;;;;;;;;19.00;98.20;;;;;;5112196;28;19915;-62
2023/07/24 05:00:10;;;;;;;;;;;19.00;98.80;;;;;;5111277;28;19934;-66
2023/07/24 05:02:37;;;;;;;;;;;18.90;99.30;;;;;;5111287;28;19953;-64
2023/07/24 05:05:03;;;;;;;;;;;18.80;99.30;;;;;;5113070;28;19911;-63
2023/07/24 05:07:30;;;;;;;;;;;18.70;99.40;;;;;;5110678;28;19911;-62
2023/07/24 05:09:57;;;;;;;;;;;18.60;99.90;;;;;;5111293;28;20295;-65
2023/07/24 05:12:23;;;;;;;;;;;18.50;99.90;;;;;;5111244;28;20008;-64
2023/07/24 05:14:50;;;;;;;;;;;18.50;99.90;;;;;;5111510;28;19961;-66
2023/07/24 05:17:16;;;;;;;;;;;18.50;99.90;;;;;;5110899;28;20006;-65
2023/07/24 05:19:43;;;;;;;;;;;18.60;99.90;;;;;;5110984;28;19912;-65
2023/07/24 05:22:10;;;;;;;;;;;18.60;99.90;;;;;;5110947;28;19908;-64
2023/07/24 05:24:37;;;;;;;;;;;18.80;99.90;;;;;;5112606;28;20344;-67
2023/07/24 05:27:04;;;;;;;;;;;19.00;99.90;;;;;;5110517;28;19970;-65
2023/07/24 05:29:31;;;;;;;;;;;19.10;99.90;;;;;;5110872;28;19911;-65
2023/07/24 05:31:58;;;;;;;;;;;19.10;99.90;;;;;;5112003;28;19908;-65
2023/07/24 05:34:25;;;;;;;;;;;19.10;99.90;;;;;;5110243;28;19920;-66
2023/07/24 05:36:52;;;;;;;;;;;19.20;99.90;;;;;;5111866;28;20051;-64
2023/07/24 05:39:18;;;;;;;;;;;19.30;99.90;;;;;;5109118;28;20303;-64
2023/07/24 05:41:45;;;;;;;;;;;19.30;99.90;;;;;;5107772;28;19912;-64
2023/07/24 05:44:12;;;;;;;;;;;19.40;99.90;;;;;;5108161;28;19942;-65
2023/07/24 05:46:38;;;;;;;;;;;19.40;99.80;;;;;;5110525;27;19941;-65
2023/07/24 05:49:05;;;;;;;;;;;19.50;99.90;;;;;;5109843;28;20413;-66
2023/07/24 05:51:32;;;;;;;;;;;19.60;99.70;;;;;;5106642;28;19912;-63
2023/07/24 05:53:58;;;;;;;;;;;19.60;99.90;;;;;;5092243;28;19916;-63
2023/07/24 05:56:25;;;;;;;;;;;19.70;99.90;;;;;;5099378;28;19912;-63
2023/07/24 05:58:51;;;;;;;;;;;19.80;99.90;;;;;;5108539;28;20202;-65
2023/07/24 06:01:18;;;;;;;;;;;20.00;99.90;;;;;;5109121;28;19920;-65
2023/07/24 06:03:45;;;;;;;;;;;20.30;99.20;;;;;;5108581;28;19912;-66
2023/07/24 06:06:11;;;;;;;;;;;20.40;98.20;;;;;;5101312;28;19966;-63
2023/07/24 06:08:38;;;;;;;;;;;20.80;98.10;;;;;;5107645;28;19912;-64
2023/07/24 06:11:04;;;;;;;;;;;21.20;97.30;;;;;;5106282;28;19918;-63
2023/07/24 06:13:31;;;;;;;;;;;21.60;97.20;;;;;;5100107;28;19920;-65
2023/07/24 06:15:58;;;;;;;;;;;21.70;96.90;;;;;;5107985;28;19912;-65
2023/07/24 06:18:24;;;;;;;;;;;21.80;96.50;;;;;;5088599;28;20011;-65
2023/07/24 06:20:54;;;;;;;;;;;22.10;95.90;;;;;;5106923;28;19912;-65
2023/07/24 06:23:21;;;;;;;;;;;22.60;95.00;;;;;;5108103;28;19916;-64
2023/07/24 06:25:47;;;;;;;;;;;22.70;94.30;;;;;;5109040;28;19919;-66
2023/07/24 06:28:14;;;;;;;;;;;22.20;94.60;;;;;;5107368;28;19922;-65
2023/07/24 06:30:41;;;;;;;;;;;21.80;95.60;;;;;;5102452;28;20324;-64
2023/07/24 06:33:07;;;;;;;;;;;21.20;95.60;;;;;;5109306;28;19924;-65
2023/07/24 06:35:34;;;;;;;;;;;20.50;96.60;;;;;;5110281;28;19955;-64
2023/07/24 06:38:00;;;;;;;;;;;19.80;97.70;;;;;;5109584;28;20399;-62
2023/07/24 06:40:27;;;;;;;;;;;19.10;98.70;;;;;;5109077;28;20007;-63
2023/07/24 06:42:54;;;;;;;;;;;18.70;99.60;;;;;;5092941;28;20932;-66
2023/07/24 06:45:20;;;;;;;;;;;18.30;99.90;;;;;;5101063;28;19965;-64
2023/07/24 06:47:47;;;;;;;;;;;17.90;99.90;;;;;;5109166;28;19919;-64
2023/07/24 06:50:13;;;;;;;;;;;17.70;99.90;;;;;;5094840;28;20356;-65
2023/07/24 06:52:40;;;;;;;;;;;17.40;99.90;;;;;;5092289;28;20391;-62
2023/07/24 06:55:07;;;;;;;;;;;17.10;99.90;;;;;;5101895;28;20809;-63
2023/07/24 06:57:34;;;;;;;;;;;16.90;99.90;;;;;;5110877;28;19992;-66
2023/07/24 07:00:00;;;;;;;;;;;16.70;99.90;;;;;;5094806;28;20274;-64
2023/07/24 07:02:28;;;;;;;;;;;16.50;99.90;;;;;;5110328;28;19949;-63
2023/07/24 07:04:55;;;;;;;;;;;16.30;99.90;;;;;;5111189;28;19953;-65
2023/07/24 07:07:21;;;;;;;;;;;16.20;99.90;;;;;;5111998;28;20249;-63
2023/07/24 07:09:48;;;;;;;;;;;16.10;99.90;;;;;;5111954;28;19908;-65
2023/07/24 07:12:14;;;;;;;;;;;16.00;99.90;;;;;;5101111;28;19918;-63
2023/07/24 07:14:41;;;;;;;;;;;15.80;99.90;;;;;;5092879;28;19957;-64
2023/07/24 07:17:08;;;;;;;;;;;15.60;99.90;;;;;;5090578;28;19967;-65
2023/07/24 07:19:36;;;;;;;;;;;15.60;99.90;;;;;;5101062;28;19943;-63
2023/07/24 07:22:02;;;;;;;;;;;15.50;99.90;;;;;;5110478;28;19926;-64
2023/07/24 07:24:29;;;;;;;;;;;15.30;99.90;;;;;;5110449;28;20326;-65
2023/07/24 07:26:55;;;;;;;;;;;15.20;99.90;;;;;;5091883;28;19912;-62
2023/07/24 07:29:22;;;;;;;;;;;15.10;99.90;;;;;;5103202;28;19911;-65
2023/07/24 07:31:49;;;;;;;;;;;15.00;99.90;;;;;;5111883;28;19915;-64
2023/07/24 07:34:15;;;;;;;;;;;14.90;99.90;;;;;;5115760;28;19936;-64
2023/07/24 07:36:42;;;;;;;;;;;14.80;99.90;;;;;;5115786;28;19976;-65
2023/07/24 07:39:09;;;;;;;;;;;14.80;99.90;;;;;;5116079;28;20378;-64
2023/07/24 07:41:36;;;;;;;;;;;14.70;99.90;;;;;;5110740;28;19919;-65
2023/07/24 07:44:02;;;;;;;;;;;14.60;99.90;;;;;;5096171;28;19920;-65
2023/07/24 07:46:29;;;;;;;;;;;14.50;99.90;;;;;;5075379;28;19908;-66
2023/07/24 07:48:55;;;;;;;;;;;14.40;99.90;;;;;;5100644;28;19907;-65
2023/07/24 07:51:25;;;;;;;;;;;14.30;99.90;;;;;;5113908;28;20361;-66
2023/07/24 07:53:52;;;;;;;;;;;14.30;99.90;;;;;;5113718;28;20360;-63
2023/07/24 07:56:18;;;;;;;;;;;14.20;99.90;;;;;;5113601;28;20031;-64
2023/07/24 07:58:45;;;;;;;;;;;14.10;99.90;;;;;;5113629;28;19908;-66
2023/07/24 08:01:12;;;;;;;;;;;14.10;99.90;;;;;;5113717;28;19916;-64
2023/07/24 08:03:38;;;;;;;;;;;14.00;99.90;;;;;;5115500;28;19995;-63
2023/07/24 08:06:06;;;;;;;;;;;13.90;99.90;;;;;;5115390;28;19908;-64
2023/07/24 08:08:32;;;;;;;;;;;13.80;99.90;;;;;;5115505;28;19908;-65
2023/07/24 08:10:59;;;;;;;;;;;13.70;99.90;;;;;;5115417;28;20086;-65
2023/07/24 08:13:25;;;;;;;;;;;13.70;99.90;;;;;;5115290;28;19923;-67
2023/07/24 08:15:52;;;;;;;;;;;13.60;99.90;;;;;;5114698;28;19915;-65
2023/07/24 08:18:18;;;;;;;;;;;13.60;99.90;;;;;;5114363;28;19918;-65
2023/07/24 08:20:45;;;;;;;;;;;13.60;99.90;;;;;;5114640;28;20041;-63
2023/07/24 08:23:12;;;;;;;;;;;13.50;99.90;;;;;;5114307;28;19951;-63
2023/07/24 08:25:38;;;;;;;;;;;13.40;99.90;;;;;;5113256;28;20372;-65
2023/07/24 08:28:05;;;;;;;;;;;13.40;99.90;;;;;;5110415;28;20258;-61
2023/07/24 08:30:32;;;;;;;;;;;13.30;99.90;;;;;;5104498;28;19911;-66
2023/07/24 08:32:59;;;;;;;;;;;13.30;99.90;;;;;;5112108;27;19920;-62
2023/07/24 08:35:25;;;;;;;;;;;13.30;99.90;;;;;;5114228;28;19915;-65
2023/07/24 08:37:52;;;;;;;;;;;13.20;99.90;;;;;;5114524;28;20045;-63
2023/07/24 08:40:19;;;;;;;;;;;13.20;99.90;;;;;;5095080;28;19912;-64
2023/07/24 08:42:47;;;;;;;;;;;13.20;99.90;;;;;;5096260;28;19924;-65
2023/07/24 08:45:14;;;;;;;;;;;13.10;99.90;;;;;;5114335;28;19912;-63
2023/07/24 08:47:44;;;;;;;;;;;13.10;99.90;;;;;;5114911;27;20282;-64
2023/07/24 08:50:15;;;;;;;;;;;13.00;99.90;;;;;;5096460;28;19912;-64
2023/07/24 08:52:42;;;;;;;;;;;13.00;99.90;;;;;;5096199;28;19924;-64
2023/07/24 08:55:09;;;;;;;;;;;13.00;99.90;;;;;;5113821;28;19934;-65
2023/07/24 08:57:36;;;;;;;;;;;13.00;99.90;;;;;;5114051;28;19907;-64
2023/07/24 09:00:04;;;;;;;;;;;12.90;99.90;;;;;;5097483;28;19912;-63
2023/07/24 09:02:35;;;;;;;;;;;12.80;99.90;;;;;;5094027;28;19916;-64
2023/07/24 09:05:03;;;;;;;;;;;12.80;99.90;;;;;;5093648;28;19912;-67
2023/07/24 09:07:30;;;;;;;;;;;12.80;99.90;;;;;;5093952;28;20376;-62
2023/07/24 09:09:57;;;;;;;;;;;12.70;99.90;;;;;;5097268;28;20283;-64
2023/07/24 09:12:24;;;;;;;;;;;12.70;99.90;;;;;;5093313;28;20323;-65
2023/07/24 09:15:00;;;;;;;;;;;12.70;99.90;;;;;;5111949;28;19947;-61
2023/07/24 09:17:27;;;;;;;;;;;12.70;99.90;;;;;;5113759;28;19916;-65
2023/07/24 09:19:57;;;;;;;;;;;12.60;99.90;;;;;;5098532;27;19946;-64
2023/07/24 09:22:26;;;;;;;;;;;12.60;99.90;;;;;;5094475;28;19916;-64
2023/07/24 09:24:54;;;;;;;;;;;12.60;99.90;;;;;;5116303;27;20400;-63
2023/07/24 09:27:21;;;;;;;;;;;12.50;99.90;;;;;;5092845;28;19916;-63
2023/07/24 09:29:48;;;;;;;;;;;12.60;99.90;;;;;;5095483;27;20360;-63
2023/07/24 09:32:24;;;;;;;;;;;12.60;99.90;;;;;;5092802;28;19970;-65
2023/07/24 09:34:51;;;;;;;;;;;12.50;99.90;;;;;;5110332;28;19915;-64
2023/07/24 09:37:26;;;;;;;;;;;12.50;99.90;;;;;;5113066;28;19916;-64
2023/07/24 09:39:52;;;;;;;;;;;12.50;99.90;;;;;;5098037;28;19908;-64
2023/07/24 09:42:27;;;;;;;;;;;12.40;99.90;;;;;;5093743;28;19977;-64
2023/07/24 09:44:54;;;;;;;;;;;12.50;99.90;;;;;;5093266;28;20003;-64
2023/07/24 09:47:20;;;;;;;;;;;12.30;99.90;;;;;;5099127;28;19994;-66
2023/07/24 09:49:47;;;;;;;;;;;12.30;99.90;;;;;;5098685;28;19912;-64
2023/07/24 09:52:14;;;;;;;;;;;12.30;99.90;;;;;;5096769;28;20006;-64
2023/07/24 09:54:59;;;;;;;;;;;12.30;99.90;;;;;;5112176;28;19915;-65
2023/07/24 09:57:26;;;;;;;;;;;12.20;99.90;;;;;;5113056;28;19919;-64
2023/07/24 09:59:53;;;;;;;;;;;12.20;99.90;;;;;;5097284;28;19912;-64
2023/07/24 10:02:20;;;;;;;;;;;12.10;99.90;;;;;;5097938;27;19912;-63
2023/07/24 10:04:48;;;;;;;;;;;12.10;99.90;;;;;;5113145;28;19912;-64
2023/07/24 10:07:15;;;;;;;;;;;12.10;99.90;;;;;;5116856;27;19912;-65
2023/07/24 10:09:45;;;;;;;;;;;12.00;99.90;;;;;;5110788;27;19911;-64
2023/07/24 10:12:12;;;;;;;;;;;12.10;99.90;;;;;;5111225;28;19912;-63
2023/07/24 10:14:39;;;;;;;;;;;12.00;99.90;;;;;;5112881;28;19915;-64
2023/07/24 10:17:05;;;;;;;;;;;12.00;99.90;;;;;;5111953;28;19915;-64
2023/07/24 10:19:44;;;;;;;;;;;12.00;99.90;;;;;;5097302;28;20388;-66
2023/07/24 10:22:20;;;;;;;;;;;11.90;99.90;;;;;;5092528;28;19947;-64
2023/07/24 10:24:50;;;;;;;;;;;11.90;99.90;;;;;;5111632;28;19918;-65
2023/07/24 10:27:23;;;;;;;;;;;11.90;99.90;;;;;;5112142;28;19943;-66
2023/07/24 10:29:59;;;;;;;;;;;11.90;99.90;;;;;;5097257;28;20387;-66
2023/07/24 10:32:26;;;;;;;;;;;11.90;99.90;;;;;;5096239;28;19912;-66
2023/07/24 10:34:56;;;;;;;;;;;11.90;99.90;;;;;;5112333;28;20626;-65
2023/07/24 10:37:31;;;;;;;;;;;11.90;99.90;;;;;;5110912;28;19956;-65
2023/07/24 10:39:58;;;;;;;;;;;11.80;99.90;;;;;;5095947;28;20276;-65
2023/07/24 10:42:24;;;;;;;;;;;11.70;99.90;;;;;;5095298;28;19977;-64
2023/07/24 10:45:01;;;;;;;;;;;11.80;99.90;;;;;;5112138;28;19930;-64
2023/07/24 10:47:28;;;;;;;;;;;11.70;99.90;;;;;;5107192;28;20276;-62
2023/07/24 10:49:56;;;;;;;;;;;11.70;99.90;;;;;;5096767;28;19919;-63
2023/07/24 10:52:28;;;;;;;;;;;11.70;99.90;;;;;;5094918;28;20300;-65
2023/07/24 10:54:54;;;;;;;;;;;11.60;99.90;;;;;;5112719;28;19975;-65
2023/07/24 10:57:27;;;;;;;;;;;11.60;99.90;;;;;;5111712;28;20006;-65
2023/07/24 10:59:54;;;;;;;;;;;11.60;99.90;;;;;;5111938;28;19912;-65
2023/07/24 11:02:21;;;;;;;;;;;11.60;99.90;;;;;;5111636;28;19908;-64
2023/07/24 11:04:48;;;;;;;;;;;11.50;99.90;;;;;;5112480;28;19963;-66
2023/07/24 11:07:15;;;;;;;;;;;11.60;99.90;;;;;;5114341;28;19930;-65
2023/07/24 11:09:41;;;;;;;;;;;11.60;99.90;;;;;;5116979;28;19986;-65
2023/07/24 11:12:15;;;;;;;;;;;11.50;99.90;;;;;;5115037;28;19994;-64
2023/07/24 11:14:48;;;;;;;;;;;11.50;99.90;;;;;;5116589;28;19920;-64
2023/07/24 11:17:15;;;;;;;;;;;11.50;99.90;;;;;;5116865;28;19935;-63
2023/07/24 11:19:42;;;;;;;;;;;11.50;99.90;;;;;;5116750;28;19953;-65
2023/07/24 11:22:08;;;;;;;;;;;11.40;99.90;;;;;;5115331;28;19955;-65
2023/07/24 11:24:42;;;;;;;;;;;11.40;99.90;;;;;;5116479;28;19908;-63
2023/07/24 11:27:16;;;;;;;;;;;11.40;99.90;;;;;;5115698;28;20364;-64
2023/07/24 11:29:52;;;;;;;;;;;11.40;99.90;;;;;;5116409;28;19950;-62
2023/07/24 11:32:22;;;;;;;;;;;11.40;99.90;;;;;;5096839;28;19920;-65
2023/07/24 11:34:49;;;;;;;;;;;11.30;99.90;;;;;;5096257;28;20388;-64
2023/07/24 11:37:16;;;;;;;;;;;11.30;99.90;;;;;;5096155;28;19908;-65
2023/07/24 11:39:43;;;;;;;;;;;11.30;99.90;;;;;;5095655;28;20349;-65
2023/07/24 11:42:10;;;;;;;;;;;11.30;99.90;;;;;;5095774;28;19912;-66
2023/07/24 11:44:36;;;;;;;;;;;11.20;99.90;;;;;;5095984;28;20305;-65
2023/07/24 11:47:03;;;;;;;;;;;11.30;99.90;;;;;;5095926;28;19908;-66
2023/07/24 11:49:31;;;;;;;;;;;11.30;99.90;;;;;;5096354;28;19915;-65
2023/07/24 11:52:05;;;;;;;;;;;11.20;99.90;;;;;;5095723;28;19993;-65
2023/07/24 11:54:34;;;;;;;;;;;11.30;99.90;;;;;;5095618;28;19969;-64
2023/07/24 11:57:00;;;;;;;;;;;11.20;99.90;;;;;;5095700;28;20281;-64
2023/07/24 11:59:27;;;;;;;;;;;11.30;99.90;;;;;;5095879;28;19916;-64
2023/07/24 12:01:54;;;;;;;;;;;11.30;99.90;;;;;;5095757;28;19969;-64
2023/07/24 12:04:20;;;;;;;;;;;11.30;99.90;;;;;;5095443;28;19919;-64
2023/07/24 12:06:47;;;;;;;;;;;11.30;99.90;;;;;;5095241;28;19912;-64
2023/07/24 12:09:14;;;;;;;;;;;11.30;99.90;;;;;;5095014;28;19913;-64
2023/07/24 12:11:44;;;;;;;;;;;11.30;99.90;;;;;;5095319;28;19911;-65
2023/07/24 12:14:11;;;;;;;;;;;11.20;99.90;;;;;;5095452;28;19916;-63
2023/07/24 12:16:38;;;;;;;;;;;11.20;99.90;;;;;;5095359;28;19954;-64
2023/07/24 12:19:05;;;;;;;;;;;11.20;99.90;;;;;;5094913;28;19945;-65
2023/07/24 12:21:32;;;;;;;;;;;11.20;99.90;;;;;;5095103;28;19913;-67
2023/07/24 12:23:59;;;;;;;;;;;11.10;99.90;;;;;;5095281;28;19959;-65
2023/07/24 12:26:27;;;;;;;;;;;11.10;99.90;;;;;;5095316;28;19909;-67
2023/07/24 12:28:54;;;;;;;;;;;11.10;99.90;;;;;;5094916;28;19930;-64
2023/07/24 12:31:21;;;;;;;;;;;11.00;99.90;;;;;;5101149;28;19912;-64
2023/07/24 12:33:47;;;;;;;;;;;11.00;99.90;;;;;;5103130;28;19927;-64
2023/07/24 12:36:14;;;;;;;;;;;11.00;99.90;;;;;;5111525;28;20386;-64
2023/07/24 12:38:41;;;;;;;;;;;11.00;99.90;;;;;;5114895;28;20053;-66
2023/07/24 12:41:07;;;;;;;;;;;11.00;99.90;;;;;;5115171;28;20412;-65
2023/07/24 12:43:34;;;;;;;;;;;11.00;99.90;;;;;;5115356;28;19919;-64
2023/07/24 12:46:00;;;;;;;;;;;10.90;99.90;;;;;;5115530;28;19907;-65
2023/07/24 12:48:27;;;;;;;;;;;10.90;99.90;;;;;;5115142;28;19912;-64
2023/07/24 12:50:56;;;;;;;;;;;10.90;99.90;;;;;;5114861;28;20391;-66
2023/07/24 12:53:22;;;;;;;;;;;10.80;99.90;;;;;;5115197;28;20009;-66
2023/07/24 12:55:49;;;;;;;;;;;10.70;99.90;;;;;;5115140;28;19907;-64
2023/07/24 12:58:16;;;;;;;;;;;10.80;99.90;;;;;;5114666;28;19908;-66
2023/07/24 13:00:42;;;;;;;;;;;10.70;99.90;;;;;;5098450;28;19912;-63
2023/07/24 13:03:09;;;;;;;;;;;10.70;99.90;;;;;;5114827;28;19908;-63
2023/07/24 13:05:36;;;;;;;;;;;10.70;99.90;;;;;;5110150;28;20349;-66
2023/07/24 13:08:02;;;;;;;;;;;10.70;99.90;;;;;;5101988;28;19911;-63
2023/07/24 13:10:29;;;;;;;;;;;10.60;99.90;;;;;;5114371;28;20278;-64
2023/07/24 13:12:55;;;;;;;;;;;10.60;99.90;;;;;;5114643;28;20008;-61
2023/07/24 13:15:22;;;;;;;;;;;10.60;99.90;;;;;;5114492;28;20383;-66
2023/07/24 13:17:49;;;;;;;;;;;10.60;99.90;;;;;;5114637;28;19912;-63
2023/07/24 13:20:15;;;;;;;;;;;10.60;99.90;;;;;;5114535;28;19915;-63
2023/07/24 13:22:46;;;;;;;;;;;10.60;99.90;;;;;;5114596;28;20360;-62
2023/07/24 13:25:13;;;;;;;;;;;10.60;99.90;;;;;;5114347;28;19908;-64
2023/07/24 13:27:39;;;;;;;;;;;10.60;99.90;;;;;;5112173;28;19908;-64
2023/07/24 13:30:06;;;;;;;;;;;10.60;99.90;;;;;;5112596;28;19912;-65
2023/07/24 13:32:33;;;;;;;;;;;10.60;99.90;;;;;;5112517;28;20383;-65
2023/07/24 13:35:00;;;;;;;;;;;10.50;99.90;;;;;;5114241;28;19961;-63
2023/07/24 13:37:26;;;;;;;;;;;10.50;99.90;;;;;;5114737;28;19908;-63
2023/07/24 13:39:53;;;;;;;;;;;10.50;99.90;;;;;;5114161;28;20376;-62
2023/07/24 13:42:20;;;;;;;;;;;10.50;99.90;;;;;;5113657;28;19914;-67
2023/07/24 13:44:46;;;;;;;;;;;10.50;99.90;;;;;;5113964;28;20284;-64
2023/07/24 13:47:13;;;;;;;;;;;10.50;99.90;;;;;;5114217;28;19920;-63
2023/07/24 13:49:39;;;;;;;;;;;10.50;99.90;;;;;;5101107;28;19915;-65
2023/07/24 13:52:06;;;;;;;;;;;10.40;99.90;;;;;;5093582;28;20288;-63
2023/07/24 13:54:33;;;;;;;;;;;10.50;99.90;;;;;;5101152;28;19921;-64
2023/07/24 13:56:59;;;;;;;;;;;10.40;99.90;;;;;;5113417;28;19912;-65
2023/07/24 13:59:26;;;;;;;;;;;10.40;99.90;;;;;;5113601;28;19908;-65
2023/07/24 14:01:53;;;;;;;;;;;10.40;99.90;;;;;;5108985;28;19912;-64
2023/07/24 14:04:19;;;;;;;;;;;10.40;99.90;;;;;;5093233;28;19915;-64
2023/07/24 14:06:46;;;;;;;;;;;10.30;99.90;;;;;;5093013;28;19961;-64
2023/07/24 14:09:13;;;;;;;;;;;10.40;99.90;;;;;;5093007;28;19935;-66
2023/07/24 14:11:39;;;;;;;;;;;10.30;99.90;;;;;;5092998;28;19989;-64
2023/07/24 14:14:06;;;;;;;;;;;10.30;99.90;;;;;;5093187;28;19981;-64
2023/07/24 14:16:32;;;;;;;;;;;10.20;99.90;;;;;;5093380;28;19971;-66